Time;durP1;ratioP1;P1;durP2;ratioP2;P2;SDS_P1;SDS_P2;PMS_P1;PMS_P2;Temp;Humidity;BMP_temperature;BMP_pressure;BME280_temperature;BME280_humidity;BME280_pressure;Samples;Min_cycle;Max_cycle;Signal;HPM_P1;HPM_P2
2021/12/21 00:00:31;;;;;;;15.7;9.450002;;;;;;;-3.9;100;95861.88;;;;
2021/12/21 00:01:32;;;;;;;15.7;9.450002;;;;;;;-3.9;100;95861.88;;;;
2021/12/21 00:02:33;;;;;;;15.7;9.450002;;;;;;;-3.9;100;95861.88;;;;
2021/12/21 00:03:33;;;;;;;17.05;9.5;;;;;;;-4.04;100;95847.75;;;;
2021/12/21 00:04:34;;;;;;;17.05;9.5;;;;;;;-4.04;100;95847.75;;;;
2021/12/21 00:05:35;;;;;;;17.05;9.5;;;;;;;-4.04;100;95847.75;;;;
2021/12/21 00:06:37;;;;;;;17.05;9.5;;;;;;;-4.04;100;95847.75;;;;
2021/12/21 00:07:37;;;;;;;17.05;9.5;;;;;;;-4.04;100;95847.75;;;;
2021/12/21 00:08:38;;;;;;;17.05;9.5;;;;;;;-4.04;100;95847.75;;;;
2021/12/21 00:09:38;;;;;;;17.05;9.5;;;;;;;-4.04;100;95847.75;;;;
2021/12/21 00:10:39;;;;;;;17.05;9.5;;;;;;;-4.04;100;95847.75;;;;
2021/12/21 00:11:42;;;;;;;17.05;9.5;;;;;;;-4.04;100;95847.75;;;;
2021/12/21 00:12:51;;;;;;;17.05;9.5;;;;;;;-4.04;100;95847.75;;;;
2021/12/21 00:14:00;;;;;;;16.75;9.1;;;;;;;-4.17;100;95855.47;;;;
2021/12/21 00:15:04;;;;;;;16.75;9.1;;;;;;;-4.17;100;95855.47;;;;
2021/12/21 00:16:14;;;;;;;16.75;9.1;;;;;;;-4.17;100;95855.47;;;;
2021/12/21 00:17:20;;;;;;;16.75;9.1;;;;;;;-4.17;100;95855.47;;;;
2021/12/21 00:18:29;;;;;;;16.75;9.1;;;;;;;-4.17;100;95855.47;;;;
2021/12/21 00:20:49;;;;;;;16.75;9.1;;;;;;;-4.17;100;95855.47;;;;
2021/12/21 00:21:56;;;;;;;16.75;9.1;;;;;;;-4.17;100;95855.47;;;;
2021/12/21 00:23:31;;;;;;;16.75;9.1;;;;;;;-4.17;100;95855.47;;;;
2021/12/21 00:24:44;;;;;;;16.75;9.1;;;;;;;-4.17;100;95855.47;;;;
2021/12/21 00:25:45;;;;;;;19.05;9.200002;;;;;;;-4.3;100;95854.85;;;;
2021/12/21 00:26:45;;;;;;;19.05;9.200002;;;;;;;-4.3;100;95854.85;;;;
2021/12/21 00:27:47;;;;;;;19.05;9.200002;;;;;;;-4.3;100;95854.85;;;;
2021/12/21 00:28:55;;;;;;;19.05;9.200002;;;;;;;-4.3;100;95854.85;;;;
2021/12/21 00:29:55;;;;;;;19.05;9.200002;;;;;;;-4.3;100;95854.85;;;;
2021/12/21 00:30:56;;;;;;;19.05;9.200002;;;;;;;-4.3;100;95854.85;;;;
2021/12/21 00:31:57;;;;;;;19.05;9.200002;;;;;;;-4.3;100;95854.85;;;;
2021/12/21 00:32:57;;;;;;;19.05;9.200002;;;;;;;-4.3;100;95854.85;;;;
2021/12/21 00:33:58;;;;;;;19.05;9.200002;;;;;;;-4.3;100;95854.85;;;;
2021/12/21 00:34:59;;;;;;;19.05;9.200002;;;;;;;-4.3;100;95854.85;;;;
2021/12/21 00:36:00;;;;;;;17.1;9.199999;;;;;;;-4.44;100;95842.46;;;;
2021/12/21 00:37:00;;;;;;;17.1;9.199999;;;;;;;-4.44;100;95842.46;;;;
2021/12/21 00:38:03;;;;;;;17.1;9.199999;;;;;;;-4.44;100;95842.46;;;;
2021/12/21 00:39:06;;;;;;;17.1;9.199999;;;;;;;-4.44;100;95842.46;;;;
2021/12/21 00:40:07;;;;;;;17.1;9.199999;;;;;;;-4.44;100;95842.46;;;;
2021/12/21 00:41:09;;;;;;;17.1;9.199999;;;;;;;-4.44;100;95842.46;;;;
2021/12/21 00:42:09;;;;;;;17.1;9.199999;;;;;;;-4.44;100;95842.46;;;;
2021/12/21 00:43:10;;;;;;;17.1;9.199999;;;;;;;-4.44;100;95842.46;;;;
2021/12/21 00:44:10;;;;;;;17.1;9.199999;;;;;;;-4.44;100;95842.46;;;;
2021/12/21 00:45:11;;;;;;;17.1;9.199999;;;;;;;-4.44;100;95842.46;;;;
2021/12/21 00:46:11;;;;;;;17.1;9.199999;;;;;;;-4.44;100;95842.46;;;;
2021/12/21 00:47:14;;;;;;;15.4;8.9;;;;;;;-4.57;100;95828.66;;;;
2021/12/21 00:48:16;;;;;;;15.4;8.9;;;;;;;-4.57;100;95828.66;;;;
2021/12/21 00:49:17;;;;;;;15.4;8.9;;;;;;;-4.57;100;95828.66;;;;
2021/12/21 00:50:18;;;;;;;15.4;8.9;;;;;;;-4.57;100;95828.66;;;;
2021/12/21 00:51:20;;;;;;;15.4;8.9;;;;;;;-4.57;100;95828.66;;;;
2021/12/21 00:52:24;;;;;;;15.4;8.9;;;;;;;-4.57;100;95828.66;;;;
2021/12/21 00:53:25;;;;;;;15.4;8.9;;;;;;;-4.57;100;95828.66;;;;
2021/12/21 00:54:26;;;;;;;15.4;8.9;;;;;;;-4.57;100;95828.66;;;;
2021/12/21 00:55:27;;;;;;;15.4;8.9;;;;;;;-4.57;100;95828.66;;;;
2021/12/21 00:56:27;;;;;;;15.4;8.9;;;;;;;-4.57;100;95828.66;;;;
2021/12/21 00:57:28;;;;;;;15.4;8.9;;;;;;;-4.57;100;95828.66;;;;
2021/12/21 00:58:28;;;;;;;16;7.8;;;;;;;-4.65;100;95822.38;;;;
2021/12/21 00:59:29;;;;;;;16;7.8;;;;;;;-4.65;100;95822.38;;;;
2021/12/21 01:00:30;;;;;;;16;7.8;;;;;;;-4.65;100;95822.38;;;;
2021/12/21 01:01:30;;;;;;;16;7.8;;;;;;;-4.65;100;95822.38;;;;
2021/12/21 01:02:32;;;;;;;16;7.8;;;;;;;-4.65;100;95822.38;;;;
2021/12/21 01:03:33;;;;;;;16;7.8;;;;;;;-4.65;100;95822.38;;;;
2021/12/21 01:04:39;;;;;;;16;7.8;;;;;;;-4.65;100;95822.38;;;;
2021/12/21 01:05:46;;;;;;;16;7.8;;;;;;;-4.65;100;95822.38;;;;
2021/12/21 01:06:59;;;;;;;16;7.8;;;;;;;-4.65;100;95822.38;;;;
2021/12/21 01:08:03;;;;;;;16;7.8;;;;;;;-4.65;100;95822.38;;;;
2021/12/21 01:09:10;;;;;;;15.8;7.900001;;;;;;;-4.71;100;95811.04;;;;
2021/12/21 01:10:46;;;;;;;15.8;7.900001;;;;;;;-4.71;100;95811.04;;;;
2021/12/21 01:11:51;;;;;;;15.8;7.900001;;;;;;;-4.71;100;95811.04;;;;
2021/12/21 01:12:58;;;;;;;15.8;7.900001;;;;;;;-4.71;100;95811.04;;;;
2021/12/21 01:14:11;;;;;;;15.8;7.900001;;;;;;;-4.71;100;95811.04;;;;
2021/12/21 01:15:21;;;;;;;15.8;7.900001;;;;;;;-4.71;100;95811.04;;;;
2021/12/21 01:16:30;;;;;;;15.8;7.900001;;;;;;;-4.71;100;95811.04;;;;
2021/12/21 01:17:36;;;;;;;15.8;7.900001;;;;;;;-4.71;100;95811.04;;;;
2021/12/21 01:18:41;;;;;;;15.8;7.900001;;;;;;;-4.71;100;95811.04;;;;
2021/12/21 01:19:46;;;;;;;14;7.85;;;;;;;-4.79;100;95806.45;;;;
2021/12/21 01:20:51;;;;;;;14;7.85;;;;;;;-4.79;100;95806.45;;;;
2021/12/21 01:22:01;;;;;;;14;7.85;;;;;;;-4.79;100;95806.45;;;;
2021/12/21 01:23:35;;;;;;;14;7.85;;;;;;;-4.79;100;95806.45;;;;
2021/12/21 01:24:52;;;;;;;14;7.85;;;;;;;-4.79;100;95806.45;;;;
2021/12/21 01:25:59;;;;;;;14;7.85;;;;;;;-4.79;100;95806.45;;;;
2021/12/21 01:27:11;;;;;;;14;7.85;;;;;;;-4.79;100;95806.45;;;;
2021/12/21 01:28:18;;;;;;;14;7.85;;;;;;;-4.79;100;95806.45;;;;
2021/12/21 01:29:26;;;;;;;14;7.85;;;;;;;-4.79;100;95806.45;;;;
2021/12/21 01:30:38;;;;;;;14;7.85;;;;;;;-4.79;100;95806.45;;;;
2021/12/21 01:31:48;;;;;;;14.45;7.65;;;;;;;-4.86;100;95800.43;;;;
2021/12/21 01:33:00;;;;;;;14.45;7.65;;;;;;;-4.86;100;95800.43;;;;
2021/12/21 01:34:15;;;;;;;14.45;7.65;;;;;;;-4.86;100;95800.43;;;;
2021/12/21 01:35:23;;;;;;;14.45;7.65;;;;;;;-4.86;100;95800.43;;;;
2021/12/21 01:36:31;;;;;;;14.45;7.65;;;;;;;-4.86;100;95800.43;;;;
2021/12/21 01:37:44;;;;;;;14.45;7.65;;;;;;;-4.86;100;95800.43;;;;
2021/12/21 01:38:52;;;;;;;14.45;7.65;;;;;;;-4.86;100;95800.43;;;;
2021/12/21 01:40:01;;;;;;;14.45;7.65;;;;;;;-4.86;100;95800.43;;;;
2021/12/21 01:41:09;;;;;;;14.45;7.65;;;;;;;-4.86;100;95800.43;;;;
2021/12/21 01:42:18;;;;;;;14.6;8.249998;;;;;;;-4.94;100;95785.83;;;;
2021/12/21 01:43:27;;;;;;;14.6;8.249998;;;;;;;-4.94;100;95785.83;;;;
2021/12/21 01:44:46;;;;;;;14.6;8.249998;;;;;;;-4.94;100;95785.83;;;;
2021/12/21 01:50:59;;;;;;;14.6;8.249998;;;;;;;-4.94;100;95785.83;;;;
2021/12/21 01:52:01;;;;;;;14.6;8.249998;;;;;;;-4.94;100;95785.83;;;;
2021/12/21 01:53:01;;;;;;;14.1;7.5;;;;;;;-5.01;100;95780.27;;;;
2021/12/21 01:54:02;;;;;;;14.1;7.5;;;;;;;-5.01;100;95780.27;;;;
2021/12/21 01:55:03;;;;;;;14.1;7.5;;;;;;;-5.01;100;95780.27;;;;
2021/12/21 01:56:05;;;;;;;14.1;7.5;;;;;;;-5.01;100;95780.27;;;;
2021/12/21 01:57:07;;;;;;;14.1;7.5;;;;;;;-5.01;100;95780.27;;;;
2021/12/21 01:58:09;;;;;;;14.1;7.5;;;;;;;-5.01;100;95780.27;;;;
2021/12/21 01:59:10;;;;;;;14.1;7.5;;;;;;;-5.01;100;95780.27;;;;
2021/12/21 02:00:10;;;;;;;14.1;7.5;;;;;;;-5.01;100;95780.27;;;;
2021/12/21 02:01:12;;;;;;;14.1;7.5;;;;;;;-5.01;100;95780.27;;;;
2021/12/21 02:02:16;;;;;;;14.1;7.5;;;;;;;-5.01;100;95780.27;;;;
2021/12/21 02:03:19;;;;;;;14.1;7.5;;;;;;;-5.01;100;95780.27;;;;
2021/12/21 02:04:20;;;;;;;18.6;8.150001;;;;;;;-5.05;100;95772.69;;;;
2021/12/21 02:05:20;;;;;;;18.6;8.150001;;;;;;;-5.05;100;95772.69;;;;
2021/12/21 02:06:21;;;;;;;18.6;8.150001;;;;;;;-5.05;100;95772.69;;;;
2021/12/21 02:07:25;;;;;;;18.6;8.150001;;;;;;;-5.05;100;95772.69;;;;
2021/12/21 02:08:25;;;;;;;18.6;8.150001;;;;;;;-5.05;100;95772.69;;;;
2021/12/21 02:09:35;;;;;;;18.6;8.150001;;;;;;;-5.05;100;95772.69;;;;
2021/12/21 02:10:36;;;;;;;18.6;8.150001;;;;;;;-5.05;100;95772.69;;;;
2021/12/21 02:11:36;;;;;;;18.6;8.150001;;;;;;;-5.05;100;95772.69;;;;
2021/12/21 02:12:38;;;;;;;18.6;8.150001;;;;;;;-5.05;100;95772.69;;;;
2021/12/21 02:13:43;;;;;;;18.6;8.150001;;;;;;;-5.05;100;95772.69;;;;
2021/12/21 02:14:44;;;;;;;16.55;10.2;;;;;;;-5.03;100;95757.19;;;;
2021/12/21 02:15:46;;;;;;;16.55;10.2;;;;;;;-5.03;100;95757.19;;;;
2021/12/21 02:16:57;;;;;;;16.55;10.2;;;;;;;-5.03;100;95757.19;;;;
2021/12/21 02:18:27;;;;;;;16.55;10.2;;;;;;;-5.03;100;95757.19;;;;
2021/12/21 02:19:32;;;;;;;16.55;10.2;;;;;;;-5.03;100;95757.19;;;;
2021/12/21 02:20:43;;;;;;;16.55;10.2;;;;;;;-5.03;100;95757.19;;;;
2021/12/21 02:21:48;;;;;;;16.55;10.2;;;;;;;-5.03;100;95757.19;;;;
2021/12/21 02:22:54;;;;;;;16.55;10.2;;;;;;;-5.03;100;95757.19;;;;
2021/12/21 02:24:01;;;;;;;16.55;10.2;;;;;;;-5.03;100;95757.19;;;;
2021/12/21 02:25:18;;;;;;;16.55;10.2;;;;;;;-5.03;100;95757.19;;;;
2021/12/21 02:26:36;;;;;;;29.75;16.25;;;;;;;-4.99;100;95747.65;;;;
2021/12/21 02:27:43;;;;;;;29.75;16.25;;;;;;;-4.99;100;95747.65;;;;
2021/12/21 02:28:58;;;;;;;29.75;16.25;;;;;;;-4.99;100;95747.65;;;;
2021/12/21 02:30:00;;;;;;;29.75;16.25;;;;;;;-4.99;100;95747.65;;;;
2021/12/21 02:31:00;;;;;;;29.75;16.25;;;;;;;-4.99;100;95747.65;;;;
2021/12/21 02:32:01;;;;;;;29.75;16.25;;;;;;;-4.99;100;95747.65;;;;
2021/12/21 02:33:02;;;;;;;29.75;16.25;;;;;;;-4.99;100;95747.65;;;;
2021/12/21 02:34:04;;;;;;;29.75;16.25;;;;;;;-4.99;100;95747.65;;;;
2021/12/21 02:35:05;;;;;;;29.75;16.25;;;;;;;-4.99;100;95747.65;;;;
2021/12/21 02:36:06;;;;;;;29.75;16.25;;;;;;;-4.99;100;95747.65;;;;
2021/12/21 02:37:07;;;;;;;36.85;15.75;;;;;;;-4.53;100;95743.61;;;;
2021/12/21 02:38:07;;;;;;;36.85;15.75;;;;;;;-4.53;100;95743.61;;;;
2021/12/21 02:39:09;;;;;;;36.85;15.75;;;;;;;-4.53;100;95743.61;;;;
2021/12/21 02:40:09;;;;;;;36.85;15.75;;;;;;;-4.53;100;95743.61;;;;
2021/12/21 02:41:11;;;;;;;36.85;15.75;;;;;;;-4.53;100;95743.61;;;;
2021/12/21 02:42:12;;;;;;;36.85;15.75;;;;;;;-4.53;100;95743.61;;;;
2021/12/21 02:43:13;;;;;;;36.85;15.75;;;;;;;-4.53;100;95743.61;;;;
2021/12/21 02:44:14;;;;;;;36.85;15.75;;;;;;;-4.53;100;95743.61;;;;
2021/12/21 02:45:15;;;;;;;36.85;15.75;;;;;;;-4.53;100;95743.61;;;;
2021/12/21 02:46:15;;;;;;;36.85;15.75;;;;;;;-4.53;100;95743.61;;;;
2021/12/21 02:47:16;;;;;;;36.85;15.75;;;;;;;-4.53;100;95743.61;;;;
2021/12/21 02:48:16;;;;;;;37.15;15.8;;;;;;;-4.01;100;95725.8;;;;
2021/12/21 02:49:18;;;;;;;37.15;15.8;;;;;;;-4.01;100;95725.8;;;;
2021/12/21 02:50:18;;;;;;;37.15;15.8;;;;;;;-4.01;100;95725.8;;;;
2021/12/21 02:51:19;;;;;;;37.15;15.8;;;;;;;-4.01;100;95725.8;;;;
2021/12/21 02:52:20;;;;;;;37.15;15.8;;;;;;;-4.01;100;95725.8;;;;
2021/12/21 02:53:20;;;;;;;37.15;15.8;;;;;;;-4.01;100;95725.8;;;;
2021/12/21 02:54:21;;;;;;;37.15;15.8;;;;;;;-4.01;100;95725.8;;;;
2021/12/21 02:55:22;;;;;;;37.15;15.8;;;;;;;-4.01;100;95725.8;;;;
2021/12/21 02:56:22;;;;;;;37.15;15.8;;;;;;;-4.01;100;95725.8;;;;
2021/12/21 02:57:23;;;;;;;37.15;15.8;;;;;;;-4.01;100;95725.8;;;;
2021/12/21 02:58:23;;;;;;;37.15;15.8;;;;;;;-4.01;100;95725.8;;;;
2021/12/21 02:59:24;;;;;;;50.15;15.1;;;;;;;-3.65;100;95729.47;;;;
2021/12/21 03:00:25;;;;;;;50.15;15.1;;;;;;;-3.65;100;95729.47;;;;
2021/12/21 03:01:28;;;;;;;50.15;15.1;;;;;;;-3.65;100;95729.47;;;;
2021/12/21 03:02:31;;;;;;;50.15;15.1;;;;;;;-3.65;100;95729.47;;;;
2021/12/21 03:03:33;;;;;;;50.15;15.1;;;;;;;-3.65;100;95729.47;;;;
2021/12/21 03:04:33;;;;;;;50.15;15.1;;;;;;;-3.65;100;95729.47;;;;
2021/12/21 03:05:36;;;;;;;50.15;15.1;;;;;;;-3.65;100;95729.47;;;;
2021/12/21 03:11:50;;;;;;;52.2;16.4;;;;;;;-3.39;100;95735.86;;;;
2021/12/21 03:18:08;;;;;;;52.2;16.4;;;;;;;-3.39;100;95735.86;;;;
2021/12/21 03:19:08;;;;;;;52.2;16.4;;;;;;;-3.39;100;95735.86;;;;
2021/12/21 03:20:10;;;;;;;52.2;16.4;;;;;;;-3.39;100;95735.86;;;;
2021/12/21 03:21:11;;;;;;;35.5;14.8;;;;;;;-3.21;100;95725.41;;;;
2021/12/21 03:22:14;;;;;;;35.5;14.8;;;;;;;-3.21;100;95725.41;;;;
2021/12/21 03:23:15;;;;;;;35.5;14.8;;;;;;;-3.21;100;95725.41;;;;
2021/12/21 03:24:15;;;;;;;35.5;14.8;;;;;;;-3.21;100;95725.41;;;;
2021/12/21 03:25:16;;;;;;;35.5;14.8;;;;;;;-3.21;100;95725.41;;;;
2021/12/21 03:26:17;;;;;;;35.5;14.8;;;;;;;-3.21;100;95725.41;;;;
2021/12/21 03:27:18;;;;;;;35.5;14.8;;;;;;;-3.21;100;95725.41;;;;
2021/12/21 03:28:18;;;;;;;35.5;14.8;;;;;;;-3.21;100;95725.41;;;;
2021/12/21 03:29:19;;;;;;;35.5;14.8;;;;;;;-3.21;100;95725.41;;;;
2021/12/21 03:30:19;;;;;;;35.5;14.8;;;;;;;-3.21;100;95725.41;;;;
2021/12/21 03:31:20;;;;;;;35.5;14.8;;;;;;;-3.21;100;95725.41;;;;
2021/12/21 03:32:21;;;;;;;45.75001;15.3;;;;;;;-3.11;100;95714.33;;;;
2021/12/21 03:33:21;;;;;;;45.75001;15.3;;;;;;;-3.11;100;95714.33;;;;
2021/12/21 03:34:22;;;;;;;45.75001;15.3;;;;;;;-3.11;100;95714.33;;;;
2021/12/21 03:35:23;;;;;;;45.75001;15.3;;;;;;;-3.11;100;95714.33;;;;
2021/12/21 03:36:24;;;;;;;45.75001;15.3;;;;;;;-3.11;100;95714.33;;;;
2021/12/21 03:37:24;;;;;;;45.75001;15.3;;;;;;;-3.11;100;95714.33;;;;
2021/12/21 03:38:25;;;;;;;45.75001;15.3;;;;;;;-3.11;100;95714.33;;;;
2021/12/21 03:39:25;;;;;;;45.75001;15.3;;;;;;;-3.11;100;95714.33;;;;
2021/12/21 03:40:31;;;;;;;45.75001;15.3;;;;;;;-3.11;100;95714.33;;;;
2021/12/21 03:41:32;;;;;;;45.75001;15.3;;;;;;;-3.11;100;95714.33;;;;
2021/12/21 03:42:33;;;;;;;43.8;14.8;;;;;;;-3.02;100;95722.72;;;;
2021/12/21 03:43:34;;;;;;;43.8;14.8;;;;;;;-3.02;100;95722.72;;;;
2021/12/21 03:44:35;;;;;;;43.8;14.8;;;;;;;-3.02;100;95722.72;;;;
2021/12/21 03:45:39;;;;;;;43.8;14.8;;;;;;;-3.02;100;95722.72;;;;
2021/12/21 03:46:47;;;;;;;43.8;14.8;;;;;;;-3.02;100;95722.72;;;;
2021/12/21 03:47:48;;;;;;;43.8;14.8;;;;;;;-3.02;100;95722.72;;;;
2021/12/21 03:48:49;;;;;;;43.8;14.8;;;;;;;-3.02;100;95722.72;;;;
2021/12/21 03:49:54;;;;;;;43.8;14.8;;;;;;;-3.02;100;95722.72;;;;
2021/12/21 03:50:54;;;;;;;43.8;14.8;;;;;;;-3.02;100;95722.72;;;;
2021/12/21 03:51:55;;;;;;;43.8;14.8;;;;;;;-3.02;100;95722.72;;;;
2021/12/21 03:52:55;;;;;;;43.8;14.8;;;;;;;-3.02;100;95722.72;;;;
2021/12/21 03:53:56;;;;;;;53.05001;16.55;;;;;;;-2.87;100;95716.49;;;;
2021/12/21 03:54:56;;;;;;;53.05001;16.55;;;;;;;-2.87;100;95716.49;;;;
2021/12/21 03:56:13;;;;;;;53.05001;16.55;;;;;;;-2.87;100;95716.49;;;;
2021/12/21 03:57:15;;;;;;;53.05001;16.55;;;;;;;-2.87;100;95716.49;;;;
2021/12/21 03:58:16;;;;;;;53.05001;16.55;;;;;;;-2.87;100;95716.49;;;;
2021/12/21 03:59:17;;;;;;;53.05001;16.55;;;;;;;-2.87;100;95716.49;;;;
2021/12/21 04:00:20;;;;;;;53.05001;16.55;;;;;;;-2.87;100;95716.49;;;;
2021/12/21 04:01:20;;;;;;;53.05001;16.55;;;;;;;-2.87;100;95716.49;;;;
2021/12/21 04:02:22;;;;;;;53.05001;16.55;;;;;;;-2.87;100;95716.49;;;;
2021/12/21 04:03:24;;;;;;;53.05001;16.55;;;;;;;-2.87;100;95716.49;;;;
2021/12/21 04:04:25;;;;;;;47.39999;15.1;;;;;;;-2.78;100;95710.35;;;;
2021/12/21 04:05:26;;;;;;;47.39999;15.1;;;;;;;-2.78;100;95710.35;;;;
2021/12/21 04:06:26;;;;;;;47.39999;15.1;;;;;;;-2.78;100;95710.35;;;;
2021/12/21 04:07:27;;;;;;;47.39999;15.1;;;;;;;-2.78;100;95710.35;;;;
2021/12/21 04:08:28;;;;;;;47.39999;15.1;;;;;;;-2.78;100;95710.35;;;;
2021/12/21 04:09:29;;;;;;;47.39999;15.1;;;;;;;-2.78;100;95710.35;;;;
2021/12/21 04:10:29;;;;;;;47.39999;15.1;;;;;;;-2.78;100;95710.35;;;;
2021/12/21 04:11:29;;;;;;;47.39999;15.1;;;;;;;-2.78;100;95710.35;;;;
2021/12/21 04:12:31;;;;;;;47.39999;15.1;;;;;;;-2.78;100;95710.35;;;;
2021/12/21 04:13:32;;;;;;;47.39999;15.1;;;;;;;-2.78;100;95710.35;;;;
2021/12/21 04:14:33;;;;;;;47.39999;15.1;;;;;;;-2.78;100;95710.35;;;;
2021/12/21 04:15:42;;;;;;;42.45;16.65;;;;;;;-2.79;100;95700.28;;;;
2021/12/21 04:16:42;;;;;;;42.45;16.65;;;;;;;-2.79;100;95700.28;;;;
2021/12/21 04:17:43;;;;;;;42.45;16.65;;;;;;;-2.79;100;95700.28;;;;
2021/12/21 04:18:43;;;;;;;42.45;16.65;;;;;;;-2.79;100;95700.28;;;;
2021/12/21 04:19:44;;;;;;;42.45;16.65;;;;;;;-2.79;100;95700.28;;;;
2021/12/21 04:20:45;;;;;;;42.45;16.65;;;;;;;-2.79;100;95700.28;;;;
2021/12/21 04:21:45;;;;;;;42.45;16.65;;;;;;;-2.79;100;95700.28;;;;
2021/12/21 04:22:46;;;;;;;42.45;16.65;;;;;;;-2.79;100;95700.28;;;;
2021/12/21 04:23:47;;;;;;;42.45;16.65;;;;;;;-2.79;100;95700.28;;;;
2021/12/21 04:24:48;;;;;;;42.45;16.65;;;;;;;-2.79;100;95700.28;;;;
2021/12/21 04:25:49;;;;;;;42.45;16.65;;;;;;;-2.79;100;95700.28;;;;
2021/12/21 04:26:49;;;;;;;44.34999;16.15;;;;;;;-2.74;100;95703.74;;;;
2021/12/21 04:27:49;;;;;;;44.34999;16.15;;;;;;;-2.74;100;95703.74;;;;
2021/12/21 04:28:50;;;;;;;44.34999;16.15;;;;;;;-2.74;100;95703.74;;;;
2021/12/21 04:29:51;;;;;;;44.34999;16.15;;;;;;;-2.74;100;95703.74;;;;
2021/12/21 04:30:52;;;;;;;44.34999;16.15;;;;;;;-2.74;100;95703.74;;;;
2021/12/21 04:31:52;;;;;;;44.34999;16.15;;;;;;;-2.74;100;95703.74;;;;
2021/12/21 04:32:53;;;;;;;44.34999;16.15;;;;;;;-2.74;100;95703.74;;;;
2021/12/21 04:33:53;;;;;;;44.34999;16.15;;;;;;;-2.74;100;95703.74;;;;
2021/12/21 04:34:54;;;;;;;44.34999;16.15;;;;;;;-2.74;100;95703.74;;;;
2021/12/21 04:35:54;;;;;;;44.34999;16.15;;;;;;;-2.74;100;95703.74;;;;
2021/12/21 04:36:55;;;;;;;44.34999;16.15;;;;;;;-2.74;100;95703.74;;;;
2021/12/21 04:37:59;;;;;;;39.05;16.7;;;;;;;-2.69;100;95713.44;;;;
2021/12/21 04:39:03;;;;;;;39.05;16.7;;;;;;;-2.69;100;95713.44;;;;
2021/12/21 04:40:06;;;;;;;39.05;16.7;;;;;;;-2.69;100;95713.44;;;;
2021/12/21 04:41:12;;;;;;;39.05;16.7;;;;;;;-2.69;100;95713.44;;;;
2021/12/21 04:42:14;;;;;;;39.05;16.7;;;;;;;-2.69;100;95713.44;;;;
2021/12/21 04:43:15;;;;;;;39.05;16.7;;;;;;;-2.69;100;95713.44;;;;
2021/12/21 04:44:16;;;;;;;39.05;16.7;;;;;;;-2.69;100;95713.44;;;;
2021/12/21 04:45:16;;;;;;;39.05;16.7;;;;;;;-2.69;100;95713.44;;;;
2021/12/21 04:46:17;;;;;;;39.05;16.7;;;;;;;-2.69;100;95713.44;;;;
2021/12/21 04:47:18;;;;;;;39.05;16.7;;;;;;;-2.69;100;95713.44;;;;
2021/12/21 04:48:19;;;;;;;30.8;15.3;;;;;;;-2.71;100;95701.7;;;;
2021/12/21 04:49:19;;;;;;;30.8;15.3;;;;;;;-2.71;100;95701.7;;;;
2021/12/21 04:50:20;;;;;;;30.8;15.3;;;;;;;-2.71;100;95701.7;;;;
2021/12/21 04:51:20;;;;;;;30.8;15.3;;;;;;;-2.71;100;95701.7;;;;
2021/12/21 04:52:21;;;;;;;30.8;15.3;;;;;;;-2.71;100;95701.7;;;;
2021/12/21 04:53:22;;;;;;;30.8;15.3;;;;;;;-2.71;100;95701.7;;;;
2021/12/21 04:54:22;;;;;;;30.8;15.3;;;;;;;-2.71;100;95701.7;;;;
2021/12/21 04:55:23;;;;;;;30.8;15.3;;;;;;;-2.71;100;95701.7;;;;
2021/12/21 04:56:23;;;;;;;30.8;15.3;;;;;;;-2.71;100;95701.7;;;;
2021/12/21 04:57:24;;;;;;;30.8;15.3;;;;;;;-2.71;100;95701.7;;;;
2021/12/21 04:58:24;;;;;;;30.8;15.3;;;;;;;-2.71;100;95701.7;;;;
2021/12/21 04:59:26;;;;;;;34.05;19.6;;;;;;;-2.77;100;95705.84;;;;
2021/12/21 05:00:26;;;;;;;34.05;19.6;;;;;;;-2.77;100;95705.84;;;;
2021/12/21 05:01:27;;;;;;;34.05;19.6;;;;;;;-2.77;100;95705.84;;;;
2021/12/21 05:02:27;;;;;;;34.05;19.6;;;;;;;-2.77;100;95705.84;;;;
2021/12/21 05:03:28;;;;;;;34.05;19.6;;;;;;;-2.77;100;95705.84;;;;
2021/12/21 05:04:29;;;;;;;34.05;19.6;;;;;;;-2.77;100;95705.84;;;;
2021/12/21 05:05:29;;;;;;;34.05;19.6;;;;;;;-2.77;100;95705.84;;;;
2021/12/21 05:06:31;;;;;;;34.05;19.6;;;;;;;-2.77;100;95705.84;;;;
2021/12/21 05:07:34;;;;;;;34.05;19.6;;;;;;;-2.77;100;95705.84;;;;
2021/12/21 05:08:38;;;;;;;34.05;19.6;;;;;;;-2.77;100;95705.84;;;;
2021/12/21 05:09:42;;;;;;;34.05;19.6;;;;;;;-2.77;100;95705.84;;;;
2021/12/21 05:10:47;;;;;;;30.55;16.35;;;;;;;-2.76;100;95706.17;;;;
2021/12/21 05:11:48;;;;;;;30.55;16.35;;;;;;;-2.76;100;95706.17;;;;
2021/12/21 05:12:48;;;;;;;30.55;16.35;;;;;;;-2.76;100;95706.17;;;;
2021/12/21 05:13:49;;;;;;;30.55;16.35;;;;;;;-2.76;100;95706.17;;;;
2021/12/21 05:14:49;;;;;;;30.55;16.35;;;;;;;-2.76;100;95706.17;;;;
2021/12/21 05:15:50;;;;;;;30.55;16.35;;;;;;;-2.76;100;95706.17;;;;
2021/12/21 05:16:51;;;;;;;30.55;16.35;;;;;;;-2.76;100;95706.17;;;;
2021/12/21 05:17:52;;;;;;;30.55;16.35;;;;;;;-2.76;100;95706.17;;;;
2021/12/21 05:18:52;;;;;;;30.55;16.35;;;;;;;-2.76;100;95706.17;;;;
2021/12/21 05:19:53;;;;;;;30.55;16.35;;;;;;;-2.76;100;95706.17;;;;
2021/12/21 05:20:53;;;;;;;30.55;16.35;;;;;;;-2.76;100;95706.17;;;;
2021/12/21 05:21:55;;;;;;;32.05;15.85;;;;;;;-2.66;100;95706.47;;;;
2021/12/21 05:22:55;;;;;;;32.05;15.85;;;;;;;-2.66;100;95706.47;;;;
2021/12/21 05:23:56;;;;;;;32.05;15.85;;;;;;;-2.66;100;95706.47;;;;
2021/12/21 05:24:56;;;;;;;32.05;15.85;;;;;;;-2.66;100;95706.47;;;;
2021/12/21 05:25:57;;;;;;;32.05;15.85;;;;;;;-2.66;100;95706.47;;;;
2021/12/21 05:26:58;;;;;;;32.05;15.85;;;;;;;-2.66;100;95706.47;;;;
2021/12/21 05:27:58;;;;;;;32.05;15.85;;;;;;;-2.66;100;95706.47;;;;
2021/12/21 05:28:59;;;;;;;32.05;15.85;;;;;;;-2.66;100;95706.47;;;;
2021/12/21 05:29:59;;;;;;;32.05;15.85;;;;;;;-2.66;100;95706.47;;;;
2021/12/21 05:31:00;;;;;;;32.05;15.85;;;;;;;-2.66;100;95706.47;;;;
2021/12/21 05:32:00;;;;;;;32.05;15.85;;;;;;;-2.66;100;95706.47;;;;
2021/12/21 05:33:03;;;;;;;32.2;16.25;;;;;;;-2.48;100;95720.64;;;;
2021/12/21 05:34:04;;;;;;;32.2;16.25;;;;;;;-2.48;100;95720.64;;;;
2021/12/21 05:35:04;;;;;;;32.2;16.25;;;;;;;-2.48;100;95720.64;;;;
2021/12/21 05:36:06;;;;;;;32.2;16.25;;;;;;;-2.48;100;95720.64;;;;
2021/12/21 05:37:07;;;;;;;32.2;16.25;;;;;;;-2.48;100;95720.64;;;;
2021/12/21 05:38:09;;;;;;;32.2;16.25;;;;;;;-2.48;100;95720.64;;;;
2021/12/21 05:39:17;;;;;;;32.2;16.25;;;;;;;-2.48;100;95720.64;;;;
2021/12/21 05:40:19;;;;;;;32.2;16.25;;;;;;;-2.48;100;95720.64;;;;
2021/12/21 05:41:25;;;;;;;32.2;16.25;;;;;;;-2.48;100;95720.64;;;;
2021/12/21 05:42:26;;;;;;;32.2;16.25;;;;;;;-2.48;100;95720.64;;;;
2021/12/21 05:43:27;;;;;;;33.70001;15.25;;;;;;;-2.36;100;95731.39;;;;
2021/12/21 05:44:29;;;;;;;33.70001;15.25;;;;;;;-2.36;100;95731.39;;;;
2021/12/21 05:45:29;;;;;;;33.70001;15.25;;;;;;;-2.36;100;95731.39;;;;
2021/12/21 05:46:30;;;;;;;33.70001;15.25;;;;;;;-2.36;100;95731.39;;;;
2021/12/21 05:47:31;;;;;;;33.70001;15.25;;;;;;;-2.36;100;95731.39;;;;
2021/12/21 05:48:31;;;;;;;33.70001;15.25;;;;;;;-2.36;100;95731.39;;;;
2021/12/21 05:49:34;;;;;;;33.70001;15.25;;;;;;;-2.36;100;95731.39;;;;
2021/12/21 05:50:34;;;;;;;33.70001;15.25;;;;;;;-2.36;100;95731.39;;;;
2021/12/21 05:51:35;;;;;;;33.70001;15.25;;;;;;;-2.36;100;95731.39;;;;
2021/12/21 05:52:36;;;;;;;33.70001;15.25;;;;;;;-2.36;100;95731.39;;;;
2021/12/21 05:53:37;;;;;;;33.70001;15.25;;;;;;;-2.36;100;95731.39;;;;
2021/12/21 05:54:37;;;;;;;28.6;14.65;;;;;;;-2.31;100;95725.59;;;;
2021/12/21 05:55:39;;;;;;;28.6;14.65;;;;;;;-2.31;100;95725.59;;;;
2021/12/21 05:56:40;;;;;;;28.6;14.65;;;;;;;-2.31;100;95725.59;;;;
2021/12/21 05:57:41;;;;;;;28.6;14.65;;;;;;;-2.31;100;95725.59;;;;
2021/12/21 05:58:42;;;;;;;28.6;14.65;;;;;;;-2.31;100;95725.59;;;;
2021/12/21 05:59:43;;;;;;;28.6;14.65;;;;;;;-2.31;100;95725.59;;;;
2021/12/21 06:00:44;;;;;;;28.6;14.65;;;;;;;-2.31;100;95725.59;;;;
2021/12/21 06:01:44;;;;;;;28.6;14.65;;;;;;;-2.31;100;95725.59;;;;
2021/12/21 06:02:45;;;;;;;28.6;14.65;;;;;;;-2.31;100;95725.59;;;;
2021/12/21 06:03:46;;;;;;;28.6;14.65;;;;;;;-2.31;100;95725.59;;;;
2021/12/21 06:04:46;;;;;;;28.6;14.65;;;;;;;-2.31;100;95725.59;;;;
2021/12/21 06:05:47;;;;;;;45.25;15.1;;;;;;;-2.26;100;95727.29;;;;
2021/12/21 06:06:47;;;;;;;45.25;15.1;;;;;;;-2.26;100;95727.29;;;;
2021/12/21 06:07:51;;;;;;;45.25;15.1;;;;;;;-2.26;100;95727.29;;;;
2021/12/21 06:08:53;;;;;;;45.25;15.1;;;;;;;-2.26;100;95727.29;;;;
2021/12/21 06:09:53;;;;;;;45.25;15.1;;;;;;;-2.26;100;95727.29;;;;
2021/12/21 06:10:56;;;;;;;45.25;15.1;;;;;;;-2.26;100;95727.29;;;;
2021/12/21 06:12:06;;;;;;;45.25;15.1;;;;;;;-2.26;100;95727.29;;;;
2021/12/21 06:13:38;;;;;;;45.25;15.1;;;;;;;-2.26;100;95727.29;;;;
2021/12/21 06:14:58;;;;;;;45.25;15.1;;;;;;;-2.26;100;95727.29;;;;
2021/12/21 06:16:24;;;;;;;45.25;15.1;;;;;;;-2.26;100;95727.29;;;;
2021/12/21 06:22:45;;;;;;;31.3;15;;;;;;;-2.19;100;95729.27;;;;
2021/12/21 06:24:39;;;;;;;31.3;15;;;;;;;-2.19;100;95729.27;;;;
2021/12/21 06:25:50;;;;;;;31.3;15;;;;;;;-2.19;100;95729.27;;;;
2021/12/21 06:26:51;;;;;;;31.3;15;;;;;;;-2.19;100;95729.27;;;;
2021/12/21 06:27:52;;;;;;;33.95;15.35;;;;;;;-2.2;100;95738.19;;;;
2021/12/21 06:28:53;;;;;;;33.95;15.35;;;;;;;-2.2;100;95738.19;;;;
2021/12/21 06:29:54;;;;;;;33.95;15.35;;;;;;;-2.2;100;95738.19;;;;
2021/12/21 06:30:55;;;;;;;33.95;15.35;;;;;;;-2.2;100;95738.19;;;;
2021/12/21 06:31:56;;;;;;;33.95;15.35;;;;;;;-2.2;100;95738.19;;;;
2021/12/21 06:32:57;;;;;;;33.95;15.35;;;;;;;-2.2;100;95738.19;;;;
2021/12/21 06:33:58;;;;;;;33.95;15.35;;;;;;;-2.2;100;95738.19;;;;
2021/12/21 06:34:59;;;;;;;33.95;15.35;;;;;;;-2.2;100;95738.19;;;;
2021/12/21 06:36:00;;;;;;;33.95;15.35;;;;;;;-2.2;100;95738.19;;;;
2021/12/21 06:37:01;;;;;;;33.95;15.35;;;;;;;-2.2;100;95738.19;;;;
2021/12/21 06:38:02;;;;;;;33.95;15.35;;;;;;;-2.2;100;95738.19;;;;